sensor_id;sensor_type;location;lat;lon;timestamp;temperature;humidity
19928;DHT22;10126;50.876;4.470;2023-01-13T00:00:28;10.10;99.90
19928;DHT22;10126;50.876;4.470;2023-01-13T00:02:29;10.20;99.90
19928;DHT22;10126;50.876;4.470;2023-01-13T00:04:30;10.10;99.90
19928;DHT22;10126;50.876;4.470;2023-01-13T00:06:31;10.20;99.90
19928;DHT22;10126;50.876;4.470;2023-01-13T00:08:32;10.10;99.90
19928;DHT22;10126;50.876;4.470;2023-01-13T00:10:33;10.20;99.90
19928;DHT22;10126;50.876;4.470;2023-01-13T00:12:37;10.20;99.90
19928;DHT22;10126;50.876;4.470;2023-01-13T00:14:37;10.10;99.90
19928;DHT22;10126;50.876;4.470;2023-01-13T00:16:38;10.00;99.90
19928;DHT22;10126;50.876;4.470;2023-01-13T00:18:38;10.00;99.90
19928;DHT22;10126;50.876;4.470;2023-01-13T00:20:39;10.10;99.90
19928;DHT22;10126;50.876;4.470;2023-01-13T00:22:40;10.10;99.90
19928;DHT22;10126;50.876;4.470;2023-01-13T00:24:40;10.00;99.90
19928;DHT22;10126;50.876;4.470;2023-01-13T00:26:41;9.80;99.90
19928;DHT22;10126;50.876;4.470;2023-01-13T00:28:42;9.80;99.90
19928;DHT22;10126;50.876;4.470;2023-01-13T00:30:42;9.70;99.90
19928;DHT22;10126;50.876;4.470;2023-01-13T00:32:43;9.70;99.90
19928;DHT22;10126;50.876;4.470;2023-01-13T00:34:44;9.60;99.90
19928;DHT22;10126;50.876;4.470;2023-01-13T00:36:44;9.60;99.90
19928;DHT22;10126;50.876;4.470;2023-01-13T00:38:45;9.70;99.90
19928;DHT22;10126;50.876;4.470;2023-01-13T00:41:01;9.60;99.90
19928;DHT22;10126;50.876;4.470;2023-01-13T00:43:02;9.60;99.90
19928;DHT22;10126;50.876;4.470;2023-01-13T00:45:21;9.60;99.90
19928;DHT22;10126;50.876;4.470;2023-01-13T00:47:22;9.60;99.90
19928;DHT22;10126;50.876;4.470;2023-01-13T00:49:25;9.50;99.90
19928;DHT22;10126;50.876;4.470;2023-01-13T00:51:25;9.40;99.90
19928;DHT22;10126;50.876;4.470;2023-01-13T00:53:28;9.40;99.90
19928;DHT22;10126;50.876;4.470;2023-01-13T00:55:31;9.30;99.90
19928;DHT22;10126;50.876;4.470;2023-01-13T00:57:33;9.30;99.90
19928;DHT22;10126;50.876;4.470;2023-01-13T00:59:33;9.30;99.90
19928;DHT22;10126;50.876;4.470;2023-01-13T01:01:34;9.30;99.90
19928;DHT22;10126;50.876;4.470;2023-01-13T01:03:35;9.20;99.90
19928;DHT22;10126;50.876;4.470;2023-01-13T01:05:37;9.20;99.90
19928;DHT22;10126;50.876;4.470;2023-01-13T01:07:38;9.10;99.90
19928;DHT22;10126;50.876;4.470;2023-01-13T01:09:38;9.20;99.90
19928;DHT22;10126;50.876;4.470;2023-01-13T01:11:39;9.10;99.90
19928;DHT22;10126;50.876;4.470;2023-01-13T01:13:41;9.20;99.90
19928;DHT22;10126;50.876;4.470;2023-01-13T01:15:44;9.20;99.90
19928;DHT22;10126;50.876;4.470;2023-01-13T01:17:47;9.20;99.90
19928;DHT22;10126;50.876;4.470;2023-01-13T01:19:47;9.20;99.90
19928;DHT22;10126;50.876;4.470;2023-01-13T01:21:48;9.20;99.90
19928;DHT22;10126;50.876;4.470;2023-01-13T01:23:49;9.20;99.90
19928;DHT22;10126;50.876;4.470;2023-01-13T01:25:49;9.10;99.90
19928;DHT22;10126;50.876;4.470;2023-01-13T01:27:50;9.10;99.90
19928;DHT22;10126;50.876;4.470;2023-01-13T01:29:51;9.10;99.90
19928;DHT22;10126;50.876;4.470;2023-01-13T01:31:51;9.10;99.90
19928;DHT22;10126;50.876;4.470;2023-01-13T01:33:53;9.10;99.90
19928;DHT22;10126;50.876;4.470;2023-01-13T01:35:54;9.00;99.90
19928;DHT22;10126;50.876;4.470;2023-01-13T01:37:54;9.00;99.90
19928;DHT22;10126;50.876;4.470;2023-01-13T01:39:55;9.00;99.90
19928;DHT22;10126;50.876;4.470;2023-01-13T01:41:56;9.00;99.90
19928;DHT22;10126;50.876;4.470;2023-01-13T01:46:42;8.90;99.90
19928;DHT22;10126;50.876;4.470;2023-01-13T01:48:43;8.90;99.90
19928;DHT22;10126;50.876;4.470;2023-01-13T01:50:44;8.80;99.90
19928;DHT22;10126;50.876;4.470;2023-01-13T01:52:58;8.80;99.90
19928;DHT22;10126;50.876;4.470;2023-01-13T01:55:11;8.80;99.90
19928;DHT22;10126;50.876;4.470;2023-01-13T01:57:17;8.80;99.90
19928;DHT22;10126;50.876;4.470;2023-01-13T01:59:19;8.80;99.90
19928;DHT22;10126;50.876;4.470;2023-01-13T02:01:20;8.60;99.90
19928;DHT22;10126;50.876;4.470;2023-01-13T02:03:21;8.70;99.90
19928;DHT22;10126;50.876;4.470;2023-01-13T02:05:22;8.70;99.90
19928;DHT22;10126;50.876;4.470;2023-01-13T02:07:27;8.70;99.90
19928;DHT22;10126;50.876;4.470;2023-01-13T02:09:29;8.60;99.90
19928;DHT22;10126;50.876;4.470;2023-01-13T02:11:34;8.60;99.90
19928;DHT22;10126;50.876;4.470;2023-01-13T02:13:53;8.60;99.90
19928;DHT22;10126;50.876;4.470;2023-01-13T02:16:00;8.60;99.90
19928;DHT22;10126;50.876;4.470;2023-01-13T02:28:13;8.60;99.90
19928;DHT22;10126;50.876;4.470;2023-01-13T02:33:35;8.60;99.90
19928;DHT22;10126;50.876;4.470;2023-01-13T02:35:46;8.60;99.90
19928;DHT22;10126;50.876;4.470;2023-01-13T02:37:49;8.60;99.90
19928;DHT22;10126;50.876;4.470;2023-01-13T02:40:02;8.70;99.90
19928;DHT22;10126;50.876;4.470;2023-01-13T02:42:12;8.70;99.90
19928;DHT22;10126;50.876;4.470;2023-01-13T02:45:01;8.80;99.90
19928;DHT22;10126;50.876;4.470;2023-01-13T02:47:31;8.80;99.90
19928;DHT22;10126;50.876;4.470;2023-01-13T02:49:37;8.90;99.90
19928;DHT22;10126;50.876;4.470;2023-01-13T02:51:39;8.90;99.90
19928;DHT22;10126;50.876;4.470;2023-01-13T02:53:48;9.00;99.90
19928;DHT22;10126;50.876;4.470;2023-01-13T02:55:53;9.10;99.90
19928;DHT22;10126;50.876;4.470;2023-01-13T02:57:57;9.10;99.90
19928;DHT22;10126;50.876;4.470;2023-01-13T03:00:00;9.10;99.90
19928;DHT22;10126;50.876;4.470;2023-01-13T03:02:03;9.20;99.90
19928;DHT22;10126;50.876;4.470;2023-01-13T03:04:58;9.10;99.90
19928;DHT22;10126;50.876;4.470;2023-01-13T03:06:55;9.10;99.90
19928;DHT22;10126;50.876;4.470;2023-01-13T03:09:14;9.10;99.90
19928;DHT22;10126;50.876;4.470;2023-01-13T03:11:18;9.20;99.90
19928;DHT22;10126;50.876;4.470;2023-01-13T03:18:58;9.30;99.90
19928;DHT22;10126;50.876;4.470;2023-01-13T03:21:08;9.30;99.90
19928;DHT22;10126;50.876;4.470;2023-01-13T03:23:30;9.20;99.90
19928;DHT22;10126;50.876;4.470;2023-01-13T03:25:35;9.20;99.90
19928;DHT22;10126;50.876;4.470;2023-01-13T03:27:59;9.20;99.90
19928;DHT22;10126;50.876;4.470;2023-01-13T03:34:20;9.30;99.90
19928;DHT22;10126;50.876;4.470;2023-01-13T03:36:23;9.30;99.90
19928;DHT22;10126;50.876;4.470;2023-01-13T03:38:30;9.20;99.90
19928;DHT22;10126;50.876;4.470;2023-01-13T03:40:35;9.20;99.90
19928;DHT22;10126;50.876;4.470;2023-01-13T03:42:38;9.20;99.90
19928;DHT22;10126;50.876;4.470;2023-01-13T03:44:51;9.20;99.90
19928;DHT22;10126;50.876;4.470;2023-01-13T03:49:21;9.10;99.90
19928;DHT22;10126;50.876;4.470;2023-01-13T03:51:23;9.00;99.90
19928;DHT22;10126;50.876;4.470;2023-01-13T03:53:31;9.00;99.90
19928;DHT22;10126;50.876;4.470;2023-01-13T03:55:39;8.90;99.90
19928;DHT22;10126;50.876;4.470;2023-01-13T03:58:16;8.90;99.90
19928;DHT22;10126;50.876;4.470;2023-01-13T04:00:21;8.80;99.90
19928;DHT22;10126;50.876;4.470;2023-01-13T04:02:32;8.80;99.90
19928;DHT22;10126;50.876;4.470;2023-01-13T04:05:03;8.70;99.90
19928;DHT22;10126;50.876;4.470;2023-01-13T04:07:27;8.70;99.90
19928;DHT22;10126;50.876;4.470;2023-01-13T04:09:49;8.70;99.90
19928;DHT22;10126;50.876;4.470;2023-01-13T04:14:08;8.70;99.90
19928;DHT22;10126;50.876;4.470;2023-01-13T04:16:10;8.70;99.90
19928;DHT22;10126;50.876;4.470;2023-01-13T04:18:15;8.70;99.90
19928;DHT22;10126;50.876;4.470;2023-01-13T04:20:17;8.70;99.90
19928;DHT22;10126;50.876;4.470;2023-01-13T04:22:18;8.70;99.90
19928;DHT22;10126;50.876;4.470;2023-01-13T04:24:18;8.80;99.90
19928;DHT22;10126;50.876;4.470;2023-01-13T04:26:19;8.70;99.90
19928;DHT22;10126;50.876;4.470;2023-01-13T04:28:20;8.80;99.90
19928;DHT22;10126;50.876;4.470;2023-01-13T04:30:21;8.80;99.90
19928;DHT22;10126;50.876;4.470;2023-01-13T04:32:21;8.90;99.90
19928;DHT22;10126;50.876;4.470;2023-01-13T04:34:22;8.90;99.90
19928;DHT22;10126;50.876;4.470;2023-01-13T04:36:23;8.90;99.90
19928;DHT22;10126;50.876;4.470;2023-01-13T04:38:29;9.00;99.90
19928;DHT22;10126;50.876;4.470;2023-01-13T04:40:30;9.00;99.90
19928;DHT22;10126;50.876;4.470;2023-01-13T04:42:31;9.00;99.90
19928;DHT22;10126;50.876;4.470;2023-01-13T04:44:31;9.00;99.90
19928;DHT22;10126;50.876;4.470;2023-01-13T04:46:34;9.00;99.90
19928;DHT22;10126;50.876;4.470;2023-01-13T04:48:35;9.00;99.90
19928;DHT22;10126;50.876;4.470;2023-01-13T04:50:35;9.00;99.90
19928;DHT22;10126;50.876;4.470;2023-01-13T04:52:37;9.10;99.90
19928;DHT22;10126;50.876;4.470;2023-01-13T04:54:38;9.00;99.90
19928;DHT22;10126;50.876;4.470;2023-01-13T04:56:38;9.00;99.90
19928;DHT22;10126;50.876;4.470;2023-01-13T04:58:39;9.20;99.90
19928;DHT22;10126;50.876;4.470;2023-01-13T05:00:39;9.20;99.90
19928;DHT22;10126;50.876;4.470;2023-01-13T05:02:40;9.10;99.90
19928;DHT22;10126;50.876;4.470;2023-01-13T05:04:41;9.00;99.90
19928;DHT22;10126;50.876;4.470;2023-01-13T05:06:42;8.90;99.90
19928;DHT22;10126;50.876;4.470;2023-01-13T05:08:42;8.80;99.90
19928;DHT22;10126;50.876;4.470;2023-01-13T05:10:43;8.80;99.90
19928;DHT22;10126;50.876;4.470;2023-01-13T05:12:44;8.70;99.90
19928;DHT22;10126;50.876;4.470;2023-01-13T05:15:04;8.60;99.90
19928;DHT22;10126;50.876;4.470;2023-01-13T05:17:24;8.50;99.90
19928;DHT22;10126;50.876;4.470;2023-01-13T05:19:36;8.50;99.90
19928;DHT22;10126;50.876;4.470;2023-01-13T05:21:40;8.40;99.90
19928;DHT22;10126;50.876;4.470;2023-01-13T05:23:59;8.30;99.90
19928;DHT22;10126;50.876;4.470;2023-01-13T05:26:18;8.30;99.90
19928;DHT22;10126;50.876;4.470;2023-01-13T05:28:19;8.30;99.90
19928;DHT22;10126;50.876;4.470;2023-01-13T05:30:31;8.30;99.90
19928;DHT22;10126;50.876;4.470;2023-01-13T05:32:32;8.20;99.90
19928;DHT22;10126;50.876;4.470;2023-01-13T05:34:33;8.20;99.90
19928;DHT22;10126;50.876;4.470;2023-01-13T05:36:33;8.20;99.90
19928;DHT22;10126;50.876;4.470;2023-01-13T05:38:34;8.20;99.90
19928;DHT22;10126;50.876;4.470;2023-01-13T05:40:37;8.20;99.90
19928;DHT22;10126;50.876;4.470;2023-01-13T05:43:01;8.10;99.90
19928;DHT22;10126;50.876;4.470;2023-01-13T05:45:19;8.20;99.90
19928;DHT22;10126;50.876;4.470;2023-01-13T05:47:20;8.20;99.90
19928;DHT22;10126;50.876;4.470;2023-01-13T05:49:21;8.20;99.90
19928;DHT22;10126;50.876;4.470;2023-01-13T05:51:21;8.20;99.90
19928;DHT22;10126;50.876;4.470;2023-01-13T05:53:26;8.20;99.90
19928;DHT22;10126;50.876;4.470;2023-01-13T05:55:26;8.20;99.90
19928;DHT22;10126;50.876;4.470;2023-01-13T05:57:27;8.20;99.90
19928;DHT22;10126;50.876;4.470;2023-01-13T05:59:28;8.20;99.90
19928;DHT22;10126;50.876;4.470;2023-01-13T06:01:29;8.20;99.90
19928;DHT22;10126;50.876;4.470;2023-01-13T06:03:29;8.10;99.90
19928;DHT22;10126;50.876;4.470;2023-01-13T06:05:31;8.10;99.90
19928;DHT22;10126;50.876;4.470;2023-01-13T06:07:32;8.10;99.90
19928;DHT22;10126;50.876;4.470;2023-01-13T06:09:32;8.10;99.90
19928;DHT22;10126;50.876;4.470;2023-01-13T06:11:33;8.10;99.90
19928;DHT22;10126;50.876;4.470;2023-01-13T06:13:33;8.10;99.90
19928;DHT22;10126;50.876;4.470;2023-01-13T06:15:34;8.10;99.90
19928;DHT22;10126;50.876;4.470;2023-01-13T06:17:35;8.10;99.90
19928;DHT22;10126;50.876;4.470;2023-01-13T06:19:36;8.10;99.90
19928;DHT22;10126;50.876;4.470;2023-01-13T06:21:37;8.10;99.90
19928;DHT22;10126;50.876;4.470;2023-01-13T06:23:37;8.10;99.90
19928;DHT22;10126;50.876;4.470;2023-01-13T06:26:09;8.10;99.90
19928;DHT22;10126;50.876;4.470;2023-01-13T06:28:11;8.10;99.90
19928;DHT22;10126;50.876;4.470;2023-01-13T06:30:12;8.10;99.90
19928;DHT22;10126;50.876;4.470;2023-01-13T06:32:16;8.10;99.90
19928;DHT22;10126;50.876;4.470;2023-01-13T06:34:18;8.10;99.90
19928;DHT22;10126;50.876;4.470;2023-01-13T06:36:23;8.10;99.90
19928;DHT22;10126;50.876;4.470;2023-01-13T06:38:26;8.00;99.90
19928;DHT22;10126;50.876;4.470;2023-01-13T06:40:27;8.10;99.90
19928;DHT22;10126;50.876;4.470;2023-01-13T06:42:30;8.10;99.90
19928;DHT22;10126;50.876;4.470;2023-01-13T06:44:50;8.00;99.90
19928;DHT22;10126;50.876;4.470;2023-01-13T06:46:51;8.00;99.90
19928;DHT22;10126;50.876;4.470;2023-01-13T06:48:52;8.00;99.90
19928;DHT22;10126;50.876;4.470;2023-01-13T06:50:53;8.00;99.90
19928;DHT22;10126;50.876;4.470;2023-01-13T06:52:53;8.00;99.90
19928;DHT22;10126;50.876;4.470;2023-01-13T06:54:54;8.00;99.90
19928;DHT22;10126;50.876;4.470;2023-01-13T06:56:55;8.10;99.90
19928;DHT22;10126;50.876;4.470;2023-01-13T06:58:55;8.00;99.90
19928;DHT22;10126;50.876;4.470;2023-01-13T07:00:59;8.00;99.90
19928;DHT22;10126;50.876;4.470;2023-01-13T07:03:16;8.00;99.90
19928;DHT22;10126;50.876;4.470;2023-01-13T07:05:18;8.10;99.90
19928;DHT22;10126;50.876;4.470;2023-01-13T07:07:19;8.10;99.90
19928;DHT22;10126;50.876;4.470;2023-01-13T07:09:19;8.10;99.90
19928;DHT22;10126;50.876;4.470;2023-01-13T07:11:20;8.10;99.90
19928;DHT22;10126;50.876;4.470;2023-01-13T07:13:21;8.10;99.90
19928;DHT22;10126;50.876;4.470;2023-01-13T07:15:40;8.10;99.90
19928;DHT22;10126;50.876;4.470;2023-01-13T07:17:40;8.10;99.90
19928;DHT22;10126;50.876;4.470;2023-01-13T07:19:41;8.10;99.90
19928;DHT22;10126;50.876;4.470;2023-01-13T07:21:41;8.10;99.90
19928;DHT22;10126;50.876;4.470;2023-01-13T07:23:43;8.10;99.90
19928;DHT22;10126;50.876;4.470;2023-01-13T07:25:44;8.10;99.90
19928;DHT22;10126;50.876;4.470;2023-01-13T07:27:44;8.00;99.90
19928;DHT22;10126;50.876;4.470;2023-01-13T07:29:45;8.10;99.90
19928;DHT22;10126;50.876;4.470;2023-01-13T07:31:46;8.10;99.90
19928;DHT22;10126;50.876;4.470;2023-01-13T07:33:47;8.00;99.90
19928;DHT22;10126;50.876;4.470;2023-01-13T07:35:54;8.00;99.90
19928;DHT22;10126;50.876;4.470;2023-01-13T07:37:55;8.10;99.90
19928;DHT22;10126;50.876;4.470;2023-01-13T07:39:55;8.00;99.90
19928;DHT22;10126;50.876;4.470;2023-01-13T07:41:56;8.00;99.90
19928;DHT22;10126;50.876;4.470;2023-01-13T07:44:15;8.10;99.90
19928;DHT22;10126;50.876;4.470;2023-01-13T07:46:17;8.10;99.90
19928;DHT22;10126;50.876;4.470;2023-01-13T07:48:18;8.10;99.90
19928;DHT22;10126;50.876;4.470;2023-01-13T07:50:19;8.00;99.90
19928;DHT22;10126;50.876;4.470;2023-01-13T07:52:20;8.10;99.90
19928;DHT22;10126;50.876;4.470;2023-01-13T07:54:21;8.10;99.90
19928;DHT22;10126;50.876;4.470;2023-01-13T07:56:22;8.00;99.90
19928;DHT22;10126;50.876;4.470;2023-01-13T07:58:24;8.00;99.90
19928;DHT22;10126;50.876;4.470;2023-01-13T08:00:25;8.00;99.90
19928;DHT22;10126;50.876;4.470;2023-01-13T08:02:25;8.00;99.90
19928;DHT22;10126;50.876;4.470;2023-01-13T08:04:26;8.00;99.90
19928;DHT22;10126;50.876;4.470;2023-01-13T08:06:26;8.10;99.90
19928;DHT22;10126;50.876;4.470;2023-01-13T08:08:27;8.20;99.90
19928;DHT22;10126;50.876;4.470;2023-01-13T08:10:28;8.20;99.90
19928;DHT22;10126;50.876;4.470;2023-01-13T08:12:29;8.20;99.90
19928;DHT22;10126;50.876;4.470;2023-01-13T08:14:48;8.20;99.90
19928;DHT22;10126;50.876;4.470;2023-01-13T08:16:50;8.20;99.90
19928;DHT22;10126;50.876;4.470;2023-01-13T08:18:50;8.20;99.90
19928;DHT22;10126;50.876;4.470;2023-01-13T08:20:51;8.20;99.90
19928;DHT22;10126;50.876;4.470;2023-01-13T08:22:56;8.30;99.90
19928;DHT22;10126;50.876;4.470;2023-01-13T08:25:00;8.30;99.90
19928;DHT22;10126;50.876;4.470;2023-01-13T08:27:00;8.40;99.90
19928;DHT22;10126;50.876;4.470;2023-01-13T08:29:01;8.40;99.90
19928;DHT22;10126;50.876;4.470;2023-01-13T08:31:04;8.50;99.90
19928;DHT22;10126;50.876;4.470;2023-01-13T08:33:07;8.50;99.90
19928;DHT22;10126;50.876;4.470;2023-01-13T08:35:08;8.40;99.90
19928;DHT22;10126;50.876;4.470;2023-01-13T08:37:08;8.50;99.90
19928;DHT22;10126;50.876;4.470;2023-01-13T08:39:09;8.50;99.90
19928;DHT22;10126;50.876;4.470;2023-01-13T08:41:11;8.50;99.90
19928;DHT22;10126;50.876;4.470;2023-01-13T08:43:12;8.50;99.90
19928;DHT22;10126;50.876;4.470;2023-01-13T08:45:13;8.60;99.90
19928;DHT22;10126;50.876;4.470;2023-01-13T08:47:14;8.70;99.90
19928;DHT22;10126;50.876;4.470;2023-01-13T08:49:15;8.80;99.90
19928;DHT22;10126;50.876;4.470;2023-01-13T08:51:16;8.90;99.90
19928;DHT22;10126;50.876;4.470;2023-01-13T08:53:17;8.90;99.90
19928;DHT22;10126;50.876;4.470;2023-01-13T08:55:18;8.80;99.90
19928;DHT22;10126;50.876;4.470;2023-01-13T08:57:18;8.90;99.90
19928;DHT22;10126;50.876;4.470;2023-01-13T08:59:19;9.00;99.90
19928;DHT22;10126;50.876;4.470;2023-01-13T09:01:22;9.00;99.90
19928;DHT22;10126;50.876;4.470;2023-01-13T09:03:22;9.00;99.90
19928;DHT22;10126;50.876;4.470;2023-01-13T09:05:23;9.00;99.90
19928;DHT22;10126;50.876;4.470;2023-01-13T09:07:24;9.10;99.90
19928;DHT22;10126;50.876;4.470;2023-01-13T09:09:25;9.20;99.90
19928;DHT22;10126;50.876;4.470;2023-01-13T09:11:35;9.10;99.90
19928;DHT22;10126;50.876;4.470;2023-01-13T09:13:55;9.00;99.90
19928;DHT22;10126;50.876;4.470;2023-01-13T09:15:56;9.00;99.90
19928;DHT22;10126;50.876;4.470;2023-01-13T09:17:56;9.00;99.90
19928;DHT22;10126;50.876;4.470;2023-01-13T09:19:57;9.00;99.90
19928;DHT22;10126;50.876;4.470;2023-01-13T09:21:58;9.00;99.90
19928;DHT22;10126;50.876;4.470;2023-01-13T09:23:58;9.10;99.90
19928;DHT22;10126;50.876;4.470;2023-01-13T09:25:59;9.20;99.90
19928;DHT22;10126;50.876;4.470;2023-01-13T09:27:59;9.20;99.90
19928;DHT22;10126;50.876;4.470;2023-01-13T09:30:00;9.30;99.90
19928;DHT22;10126;50.876;4.470;2023-01-13T09:32:01;9.10;99.90
19928;DHT22;10126;50.876;4.470;2023-01-13T09:34:04;9.10;99.90
19928;DHT22;10126;50.876;4.470;2023-01-13T09:36:23;9.10;99.90
19928;DHT22;10126;50.876;4.470;2023-01-13T09:38:24;9.20;99.90
19928;DHT22;10126;50.876;4.470;2023-01-13T09:40:24;9.20;99.90
19928;DHT22;10126;50.876;4.470;2023-01-13T09:47:03;9.60;99.90
19928;DHT22;10126;50.876;4.470;2023-01-13T09:49:11;9.80;99.90
19928;DHT22;10126;50.876;4.470;2023-01-13T09:51:21;9.90;99.90
19928;DHT22;10126;50.876;4.470;2023-01-13T09:53:42;9.90;99.90
19928;DHT22;10126;50.876;4.470;2023-01-13T09:55:46;9.90;99.90
19928;DHT22;10126;50.876;4.470;2023-01-13T09:57:47;9.90;99.90
19928;DHT22;10126;50.876;4.470;2023-01-13T09:59:48;10.10;99.90
19928;DHT22;10126;50.876;4.470;2023-01-13T10:01:58;10.30;99.90
19928;DHT22;10126;50.876;4.470;2023-01-13T10:04:13;10.30;99.90
19928;DHT22;10126;50.876;4.470;2023-01-13T10:06:34;10.20;99.90
19928;DHT22;10126;50.876;4.470;2023-01-13T10:08:44;10.10;99.90
19928;DHT22;10126;50.876;4.470;2023-01-13T10:10:51;10.00;99.90
19928;DHT22;10126;50.876;4.470;2023-01-13T10:12:54;10.00;99.90
19928;DHT22;10126;50.876;4.470;2023-01-13T10:15:21;9.80;99.90
19928;DHT22;10126;50.876;4.470;2023-01-13T10:17:32;9.80;99.90
19928;DHT22;10126;50.876;4.470;2023-01-13T10:19:42;9.90;99.90
19928;DHT22;10126;50.876;4.470;2023-01-13T10:22:23;9.90;99.90
19928;DHT22;10126;50.876;4.470;2023-01-13T10:24:55;10.10;99.90
19928;DHT22;10126;50.876;4.470;2023-01-13T10:27:09;10.20;99.90
19928;DHT22;10126;50.876;4.470;2023-01-13T10:29:24;10.10;99.90
19928;DHT22;10126;50.876;4.470;2023-01-13T10:31:25;10.10;99.90
19928;DHT22;10126;50.876;4.470;2023-01-13T10:33:26;10.10;99.90
19928;DHT22;10126;50.876;4.470;2023-01-13T10:38:16;10.20;99.90
19928;DHT22;10126;50.876;4.470;2023-01-13T10:40:17;10.40;99.90
19928;DHT22;10126;50.876;4.470;2023-01-13T10:42:19;10.30;99.90
19928;DHT22;10126;50.876;4.470;2023-01-13T10:44:24;10.30;99.90
19928;DHT22;10126;50.876;4.470;2023-01-13T10:46:25;10.30;99.90
19928;DHT22;10126;50.876;4.470;2023-01-13T10:48:41;10.20;99.90
19928;DHT22;10126;50.876;4.470;2023-01-13T10:50:44;10.10;99.90
19928;DHT22;10126;50.876;4.470;2023-01-13T10:53:16;10.00;99.90
19928;DHT22;10126;50.876;4.470;2023-01-13T10:55:26;9.70;99.90
19928;DHT22;10126;50.876;4.470;2023-01-13T10:57:27;9.60;99.90
19928;DHT22;10126;50.876;4.470;2023-01-13T10:59:28;9.50;99.90
19928;DHT22;10126;50.876;4.470;2023-01-13T11:01:29;9.40;99.90
19928;DHT22;10126;50.876;4.470;2023-01-13T11:03:38;9.50;99.90
19928;DHT22;10126;50.876;4.470;2023-01-13T11:05:54;9.40;99.90
19928;DHT22;10126;50.876;4.470;2023-01-13T11:07:55;9.20;99.90
19928;DHT22;10126;50.876;4.470;2023-01-13T11:10:26;9.30;99.90
19928;DHT22;10126;50.876;4.470;2023-01-13T11:12:33;9.40;99.90
19928;DHT22;10126;50.876;4.470;2023-01-13T11:14:40;9.30;99.90
19928;DHT22;10126;50.876;4.470;2023-01-13T11:16:47;9.30;99.90
19928;DHT22;10126;50.876;4.470;2023-01-13T11:18:56;9.30;99.90
19928;DHT22;10126;50.876;4.470;2023-01-13T11:21:29;9.30;99.90
19928;DHT22;10126;50.876;4.470;2023-01-13T11:23:44;9.40;99.90
19928;DHT22;10126;50.876;4.470;2023-01-13T11:25:50;9.40;99.90
19928;DHT22;10126;50.876;4.470;2023-01-13T11:27:59;9.40;99.90
19928;DHT22;10126;50.876;4.470;2023-01-13T11:30:37;9.40;99.90
19928;DHT22;10126;50.876;4.470;2023-01-13T11:35:16;9.60;99.90
19928;DHT22;10126;50.876;4.470;2023-01-13T11:37:26;9.70;99.90
19928;DHT22;10126;50.876;4.470;2023-01-13T11:47:02;9.80;99.90
19928;DHT22;10126;50.876;4.470;2023-01-13T11:49:03;9.90;99.90
19928;DHT22;10126;50.876;4.470;2023-01-13T12:04:32;10.30;99.90
19928;DHT22;10126;50.876;4.470;2023-01-13T12:06:39;10.20;99.90
19928;DHT22;10126;50.876;4.470;2023-01-13T12:09:02;10.20;99.90
19928;DHT22;10126;50.876;4.470;2023-01-13T12:13:41;10.20;99.90
19928;DHT22;10126;50.876;4.470;2023-01-13T12:15:57;10.20;99.90
19928;DHT22;10126;50.876;4.470;2023-01-13T12:22:35;10.40;99.90
19928;DHT22;10126;50.876;4.470;2023-01-13T12:26:48;10.40;99.90
19928;DHT22;10126;50.876;4.470;2023-01-13T12:31:00;10.30;99.90
19928;DHT22;10126;50.876;4.470;2023-01-13T12:35:50;10.30;99.90
19928;DHT22;10126;50.876;4.470;2023-01-13T12:37:56;10.30;99.90
19928;DHT22;10126;50.876;4.470;2023-01-13T12:42:59;10.20;99.90
19928;DHT22;10126;50.876;4.470;2023-01-13T12:45:24;10.10;99.90
19928;DHT22;10126;50.876;4.470;2023-01-13T12:47:34;10.00;99.90
19928;DHT22;10126;50.876;4.470;2023-01-13T12:49:35;10.00;99.90
19928;DHT22;10126;50.876;4.470;2023-01-13T12:53:56;10.00;99.90
19928;DHT22;10126;50.876;4.470;2023-01-13T12:58:39;9.90;99.90
19928;DHT22;10126;50.876;4.470;2023-01-13T13:02:42;9.80;99.90
19928;DHT22;10126;50.876;4.470;2023-01-13T13:09:33;9.70;99.90
19928;DHT22;10126;50.876;4.470;2023-01-13T13:11:47;9.60;99.90
19928;DHT22;10126;50.876;4.470;2023-01-13T13:14:10;9.70;99.90
19928;DHT22;10126;50.876;4.470;2023-01-13T13:16:35;9.70;99.90
19928;DHT22;10126;50.876;4.470;2023-01-13T13:18:36;9.70;99.90
19928;DHT22;10126;50.876;4.470;2023-01-13T13:23:36;9.80;99.90
19928;DHT22;10126;50.876;4.470;2023-01-13T13:26:42;10.00;99.90
19928;DHT22;10126;50.876;4.470;2023-01-13T13:28:20;10.00;99.90
19928;DHT22;10126;50.876;4.470;2023-01-13T13:30:33;10.10;99.90
19928;DHT22;10126;50.876;4.470;2023-01-13T13:35:33;10.40;99.90
19928;DHT22;10126;50.876;4.470;2023-01-13T13:38:00;10.30;99.90
19928;DHT22;10126;50.876;4.470;2023-01-13T13:40:31;10.30;99.90
19928;DHT22;10126;50.876;4.470;2023-01-13T13:42:56;10.30;99.90
19928;DHT22;10126;50.876;4.470;2023-01-13T13:45:19;10.40;99.90
19928;DHT22;10126;50.876;4.470;2023-01-13T13:47:39;10.30;99.90
19928;DHT22;10126;50.876;4.470;2023-01-13T13:49:46;10.30;99.90
19928;DHT22;10126;50.876;4.470;2023-01-13T13:52:01;10.30;99.90
19928;DHT22;10126;50.876;4.470;2023-01-13T13:54:03;10.20;99.90
19928;DHT22;10126;50.876;4.470;2023-01-13T13:56:17;10.30;99.90
19928;DHT22;10126;50.876;4.470;2023-01-13T13:58:21;10.30;99.90
19928;DHT22;10126;50.876;4.470;2023-01-13T14:00:45;10.20;99.90
19928;DHT22;10126;50.876;4.470;2023-01-13T14:02:52;10.30;99.90
19928;DHT22;10126;50.876;4.470;2023-01-13T14:05:17;10.30;99.90
19928;DHT22;10126;50.876;4.470;2023-01-13T14:07:20;10.30;99.90
19928;DHT22;10126;50.876;4.470;2023-01-13T14:09:22;10.30;99.90
19928;DHT22;10126;50.876;4.470;2023-01-13T14:11:31;10.30;99.90
19928;DHT22;10126;50.876;4.470;2023-01-13T14:13:32;10.30;99.90
19928;DHT22;10126;50.876;4.470;2023-01-13T14:15:35;10.30;99.90
19928;DHT22;10126;50.876;4.470;2023-01-13T14:17:36;10.30;99.90
19928;DHT22;10126;50.876;4.470;2023-01-13T14:19:37;10.30;99.90
19928;DHT22;10126;50.876;4.470;2023-01-13T14:21:47;10.40;99.90
19928;DHT22;10126;50.876;4.470;2023-01-13T14:23:55;10.40;99.90
19928;DHT22;10126;50.876;4.470;2023-01-13T14:26:07;10.40;99.90
19928;DHT22;10126;50.876;4.470;2023-01-13T14:30:16;10.50;99.90
19928;DHT22;10126;50.876;4.470;2023-01-13T14:32:19;10.50;99.90
19928;DHT22;10126;50.876;4.470;2023-01-13T14:34:21;10.50;99.90
19928;DHT22;10126;50.876;4.470;2023-01-13T14:36:33;10.50;99.90
19928;DHT22;10126;50.876;4.470;2023-01-13T14:38:35;10.40;99.90
19928;DHT22;10126;50.876;4.470;2023-01-13T14:42:37;10.50;99.90
19928;DHT22;10126;50.876;4.470;2023-01-13T14:44:46;10.40;99.90
19928;DHT22;10126;50.876;4.470;2023-01-13T14:46:47;10.40;99.90
19928;DHT22;10126;50.876;4.470;2023-01-13T14:48:51;10.30;99.90
19928;DHT22;10126;50.876;4.470;2023-01-13T14:50:53;10.40;99.90
19928;DHT22;10126;50.876;4.470;2023-01-13T14:52:54;10.50;99.90
19928;DHT22;10126;50.876;4.470;2023-01-13T14:59:40;10.40;99.90
19928;DHT22;10126;50.876;4.470;2023-01-13T15:01:42;10.40;99.90
19928;DHT22;10126;50.876;4.470;2023-01-13T15:03:42;10.30;99.90
19928;DHT22;10126;50.876;4.470;2023-01-13T15:05:51;10.30;99.90
19928;DHT22;10126;50.876;4.470;2023-01-13T15:10:04;10.20;99.90
19928;DHT22;10126;50.876;4.470;2023-01-13T15:12:28;10.20;99.90